<?xml version="1.0" encoding="utf-8"?>
<gpx xmlns:xsi="http://www.w3.org/2001/XMLSchema-instance" xmlns:xsd="http://www.w3.org/2001/XMLSchema" xsi:schemaLocation="http://www.topografix.com/GPX/1/0 http://www.topografix.com/GPX/1/0/gpx.xsd" version="1.0" creator="QuoVadis 7.0.1.31" xmlns="http://www.topografix.com/GPX/1/0">
  <name>qv7</name>
  <trk>
    <name>Far-East-South-1</name>
    <trkseg>
      <trkpt lat="59.9348709682428" lon="115.454077720642">
        <ele>0.02</ele>
        <time>2013-04-07T15:48:06.727Z</time>
      </trkpt>
      <trkpt lat="63.6730222295885" lon="135.638301372528">
        <ele>0.02</ele>
        <time>2013-04-07T15:48:10.221Z</time>
      </trkpt>
      <trkpt lat="48.2727824482894" lon="159.092223644257">
        <ele>0.02</ele>
        <time>2013-04-07T15:48:20.283Z</time>
      </trkpt>
      <trkpt lat="42.6338008592848" lon="148.025493621826">
        <ele>0.02</ele>
        <time>2013-04-07T15:48:21.921Z</time>
      </trkpt>
      <trkpt lat="42.8185576624839" lon="145.950472354889">
        <ele>0.02</ele>
        <time>2013-04-07T15:48:23.715Z</time>
      </trkpt>
      <trkpt lat="45.5679246315901" lon="140.920128822327">
        <ele>0.02</ele>
        <time>2013-04-07T15:48:25.665Z</time>
      </trkpt>
      <trkpt lat="42.5875296402436" lon="135.575408935547">
        <ele>0.02</ele>
        <time>2013-04-07T15:48:27.069Z</time>
      </trkpt>
      <trkpt lat="41.5136708805314" lon="130.607957839966">
        <ele>0.02</ele>
        <time>2013-04-07T15:48:28.863Z</time>
      </trkpt>
      <trkpt lat="42.6338008592848" lon="129.224603176117">
        <ele>0.02</ele>
        <time>2013-04-07T15:48:29.721Z</time>
      </trkpt>
      <trkpt lat="44.9927566980213" lon="130.293560028076">
        <ele>0.02</ele>
        <time>2013-04-07T15:48:31.359Z</time>
      </trkpt>
      <trkpt lat="46.2678187110065" lon="132.179946899414">
        <ele>0.02</ele>
        <time>2013-04-07T15:48:32.841Z</time>
      </trkpt>
      <trkpt lat="46.7869407752386" lon="132.179946899414">
        <ele>0.02</ele>
        <time>2013-04-07T15:48:34.713Z</time>
      </trkpt>
      <trkpt lat="47.1302719219553" lon="130.167818069458">
        <ele>0.02</ele>
        <time>2013-04-07T15:48:35.883Z</time>
      </trkpt>
      <trkpt lat="48.8967048182025" lon="126.898097991943">
        <ele>0.02</ele>
        <time>2013-04-07T15:48:37.131Z</time>
      </trkpt>
      <trkpt lat="52.784959549795" lon="123.691248893738">
        <ele>0.02</ele>
        <time>2013-04-07T15:48:38.613Z</time>
      </trkpt>
      <trkpt lat="53.012536999227" lon="121.113216876984">
        <ele>0.02</ele>
        <time>2013-04-07T15:48:40.485Z</time>
      </trkpt>
      <trkpt lat="59.7243887942098" lon="115.5113697052">
        <ele>0.02</ele>
        <time>2013-04-07T20:22:49.266Z</time>
        <speed>50</speed>
      </trkpt>
    </trkseg>
  </trk>
</gpx>